createdAt,value
2022-10-03T00:01:45.945Z,100858.34
2022-10-03T00:04:34.830Z,100861.84
2022-10-03T00:07:28.252Z,100868.09
2022-10-03T00:10:13.708Z,100874.09
2022-10-03T00:13:00.153Z,100876.94
2022-10-03T00:15:31.707Z,100876.84
2022-10-03T00:18:26.448Z,100880.94
2022-10-03T00:21:15.114Z,100876.13
2022-10-03T00:23:51.825Z,100879.25
2022-10-03T00:26:37.545Z,100887.25
2022-10-03T00:29:30.253Z,100882.22
2022-10-03T00:32:16.425Z,100883.09
2022-10-03T00:35:05.258Z,100880.44
2022-10-03T00:37:55.509Z,100886.97
2022-10-03T00:40:31.310Z,100880.63
2022-10-03T00:43:27.550Z,100896.69
2022-10-03T00:46:00.320Z,100889.66
2022-10-03T00:48:41.986Z,100901.00
2022-10-03T00:51:37.471Z,100889.53
2022-10-03T00:54:24.279Z,100886.25
2022-10-03T00:57:15.688Z,100901.94
2022-10-03T00:59:48.115Z,100908.97
2022-10-03T01:02:27.740Z,100892.78
2022-10-03T01:05:25.661Z,100905.09
2022-10-03T01:08:03.845Z,100902.38
2022-10-03T01:10:36.549Z,100900.78
2022-10-03T01:13:11.803Z,100900.78
2022-10-03T01:15:56.921Z,100909.34
2022-10-03T01:18:32.224Z,100908.53
2022-10-03T01:21:08.022Z,100920.84
2022-10-03T01:23:48.682Z,100917.31
2022-10-03T01:26:26.573Z,100912.28
2022-10-03T01:29:17.685Z,100921.88
2022-10-03T01:31:52.077Z,100910.75
2022-10-03T01:34:34.084Z,100919.31
2022-10-03T01:37:22.688Z,100917.88
2022-10-03T01:40:04.489Z,100912.28
2022-10-03T01:42:51.447Z,100924.53
2022-10-03T01:45:37.736Z,100922.22
2022-10-03T01:48:12.988Z,100904.19
2022-10-03T01:50:54.927Z,100915.22
2022-10-03T01:53:38.324Z,100912.38
2022-10-03T01:56:12.871Z,100918.47
2022-10-03T01:58:49.722Z,100920.38
2022-10-03T02:01:24.766Z,100922.31
2022-10-03T02:04:04.547Z,100926.69
2022-10-03T02:06:48.167Z,100937.13
2022-10-03T02:09:39.480Z,100947.56
2022-10-03T02:12:10.485Z,100923.97
2022-10-03T02:14:47.913Z,100929.06
2022-10-03T02:17:47.797Z,100937.41
2022-10-03T02:20:28.935Z,100918.88
2022-10-03T02:22:57.802Z,100924.13
2022-10-03T02:25:31.471Z,100928.41
2022-10-03T02:28:10.470Z,100930.59
2022-10-03T02:31:06.852Z,100938.25
2022-10-03T02:34:11.292Z,100937.31
2022-10-03T02:37:10.457Z,100935.84
2022-10-03T02:39:46.314Z,100942.78
2022-10-03T02:42:52.428Z,100934.13
2022-10-03T02:45:51.138Z,100934.50
2022-10-03T02:48:32.783Z,100949.38
2022-10-03T02:51:18.295Z,100947.59
2022-10-03T02:54:18.389Z,100961.44
2022-10-03T02:57:10.090Z,100956.13
2022-10-03T02:59:51.880Z,100959.47
2022-10-03T03:02:27.991Z,100963.34
2022-10-03T03:05:18.611Z,100964.59
2022-10-03T03:08:14.295Z,100969.94
2022-10-03T03:10:59.721Z,100982.34
2022-10-03T03:14:04.581Z,100984.22
2022-10-03T03:16:57.259Z,100979.44
2022-10-03T03:19:35.159Z,100977.56
2022-10-03T03:22:12.906Z,100975.75
2022-10-03T03:24:59.848Z,100983.56
2022-10-03T03:28:05.317Z,100974.16
2022-10-03T03:31:01.607Z,100978.72
2022-10-03T03:34:07.679Z,100975.03
2022-10-03T03:37:00.998Z,100972.84
2022-10-03T03:39:42.914Z,100978.06
2022-10-03T03:42:28.774Z,100978.66
2022-10-03T03:45:29.706Z,100979.59
2022-10-03T03:48:02.722Z,100984.56
2022-10-03T03:50:43.598Z,100981.88
2022-10-03T03:53:21.994Z,100987.38
2022-10-03T03:56:17.595Z,100992.53
2022-10-03T03:59:10.765Z,100986.75
2022-10-03T04:01:49.329Z,100986.91
2022-10-03T04:04:19.006Z,100990.50
2022-10-03T04:06:56.567Z,100996.16
2022-10-03T04:09:43.963Z,101000.13
2022-10-03T04:12:50.802Z,101006.88
2022-10-03T04:15:29.848Z,100997.28
2022-10-03T04:18:35.155Z,101005.81
2022-10-03T04:21:19.063Z,101008.63
2022-10-03T04:24:00.159Z,101008.56
2022-10-03T04:26:30.593Z,101006.56
2022-10-03T04:29:30.624Z,101006.78
2022-10-03T04:32:26.681Z,101003.28
2022-10-03T04:35:31.329Z,101006.16
2022-10-03T04:38:21.504Z,101017.03
2022-10-03T04:41:13.465Z,101029.06
2022-10-03T04:43:53.900Z,101022.13
2022-10-03T04:46:29.858Z,101019.78
2022-10-03T04:49:03.284Z,101009.72
2022-10-03T04:51:36.521Z,101013.72
2022-10-03T04:54:27.812Z,101022.06
2022-10-03T04:56:59.917Z,101017.19
2022-10-03T04:59:29.570Z,101029.88
2022-10-03T05:02:03.564Z,101025.75
2022-10-03T05:04:33.546Z,101020.75
2022-10-03T05:07:18.913Z,101023.69
2022-10-03T05:09:53.504Z,101026.66
2022-10-03T05:12:42.373Z,101023.31
2022-10-03T05:15:28.355Z,101030.03
2022-10-03T05:18:11.205Z,101024.34
2022-10-03T05:20:51.598Z,101021.94
2022-10-03T05:23:33.169Z,101035.91
2022-10-03T05:26:45.448Z,101035.34
2022-10-03T05:29:50.605Z,101033.63
2022-10-03T05:32:40.423Z,101036.38
2022-10-03T05:35:29.416Z,101045.78
2022-10-03T05:38:10.077Z,101054.25
2022-10-03T05:40:40.195Z,101046.84
2022-10-03T05:43:36.588Z,101048.75
2022-10-03T05:46:31.151Z,101052.53
2022-10-03T05:49:13.103Z,101060.16
2022-10-03T05:51:53.929Z,101051.41
2022-10-03T05:54:40.645Z,101058.94
2022-10-03T05:57:29.568Z,101060.63
2022-10-03T06:00:07.490Z,101069.28
2022-10-03T06:03:14.373Z,101079.66
2022-10-03T06:05:56.240Z,101081.91
2022-10-03T06:08:46.591Z,101085.84
2022-10-03T06:11:34.778Z,101085.06
2022-10-03T06:14:30.080Z,101099.22
2022-10-03T06:17:21.724Z,101097.72
2022-10-03T06:19:55.732Z,101101.78
2022-10-03T06:22:34.874Z,101109.66
2022-10-03T06:25:10.996Z,101101.69
2022-10-03T06:28:10.174Z,101107.69
2022-10-03T06:31:02.088Z,101113.69
2022-10-03T06:33:47.718Z,101121.78
2022-10-03T06:36:39.712Z,101145.63
2022-10-03T06:39:45.830Z,101133.00
2022-10-03T06:42:28.325Z,101128.53
2022-10-03T06:45:05.339Z,101128.41
2022-10-03T06:48:00.123Z,101136.03
2022-10-03T06:50:46.305Z,101134.63
2022-10-03T06:53:31.981Z,101126.81
2022-10-03T06:56:27.225Z,101135.28
2022-10-03T06:59:06.216Z,101130.53
2022-10-03T07:01:49.976Z,101142.72
2022-10-03T07:04:59.488Z,101147.94
2022-10-03T07:07:46.058Z,101135.59
2022-10-03T07:10:45.173Z,101148.81
2022-10-03T07:13:22.881Z,101153.38
2022-10-03T07:16:26.928Z,101150.59
2022-10-03T07:19:06.452Z,101146.91
2022-10-03T07:22:11.196Z,101147.19
2022-10-03T07:25:03.596Z,101160.63
2022-10-03T07:27:51.224Z,101156.59
2022-10-03T07:30:21.073Z,101172.88
2022-10-03T07:33:24.175Z,101172.13
2022-10-03T07:36:35.712Z,101169.72
2022-10-03T07:39:33.537Z,101167.44
2022-10-03T07:42:25.857Z,101168.19
2022-10-03T07:45:36.063Z,101178.75
2022-10-03T07:48:34.006Z,101191.13
2022-10-03T07:51:08.230Z,101181.84
2022-10-03T07:54:11.271Z,101185.72
2022-10-03T07:57:07.518Z,101193.41
2022-10-03T07:59:46.907Z,101197.03
2022-10-03T08:02:34.967Z,101197.72
2022-10-03T08:05:17.304Z,101213.03
2022-10-03T08:08:03.612Z,101207.72
2022-10-03T08:10:59.705Z,101209.91
2022-10-03T08:13:52.173Z,101210.38
2022-10-03T08:16:42.440Z,101207.81
2022-10-03T08:19:24.649Z,101222.56
2022-10-03T08:22:07.121Z,101216.41
2022-10-03T08:24:40.073Z,101224.22
2022-10-03T08:27:35.329Z,101220.91
2022-10-03T08:30:08.229Z,101217.69
2022-10-03T08:32:52.099Z,101222.13
2022-10-03T08:35:50.516Z,101234.16
2022-10-03T08:38:28.090Z,101222.59
2022-10-03T08:41:14.281Z,101237.38
2022-10-03T08:44:11.052Z,101218.25
2022-10-03T08:47:12.332Z,101226.59
2022-10-03T08:50:05.799Z,101228.59
2022-10-03T08:53:04.268Z,101238.31
2022-10-03T08:56:07.853Z,101229.13
2022-10-03T08:58:51.440Z,101235.94
2022-10-03T09:01:35.398Z,101228.16
2022-10-03T09:04:30.270Z,101228.47
2022-10-03T09:07:18.065Z,101224.28
2022-10-03T09:09:54.864Z,101229.66
2022-10-03T09:12:42.866Z,101231.25
2022-10-03T09:15:48.694Z,101228.41
2022-10-03T09:18:49.756Z,101235.09
2022-10-03T09:21:26.274Z,101232.09
2022-10-03T09:24:19.322Z,101226.44
2022-10-03T09:27:00.252Z,101238.72
2022-10-03T09:29:45.862Z,101235.09
2022-10-03T09:32:40.766Z,101235.38
2022-10-03T09:35:29.838Z,101232.63
2022-10-03T09:38:24.430Z,101233.81
2022-10-03T09:41:28.932Z,101236.03
2022-10-03T09:44:33.379Z,101241.41
2022-10-03T09:47:28.019Z,101241.50
2022-10-03T09:50:21.726Z,101240.66
2022-10-03T09:53:28.106Z,101248.03
2022-10-03T09:56:11.462Z,101245.25
2022-10-03T09:59:05.558Z,101249.13
2022-10-03T10:01:44.269Z,101260.97
2022-10-03T10:04:54.106Z,101249.09
2022-10-03T10:07:37.978Z,101248.47
2022-10-03T10:10:21.847Z,101248.91
2022-10-03T10:13:11.208Z,101250.94
2022-10-03T10:15:50.780Z,101261.72
2022-10-03T10:18:41.708Z,101246.66
2022-10-03T10:21:25.880Z,101245.88
2022-10-03T10:24:14.265Z,101249.97
2022-10-03T10:27:09.039Z,101239.28
2022-10-03T10:30:12.549Z,101249.97
2022-10-03T10:32:51.516Z,101254.00
2022-10-03T10:35:44.664Z,101249.56
2022-10-03T10:38:26.471Z,101247.19
2022-10-03T10:41:27.578Z,101268.56
2022-10-03T10:44:25.425Z,101247.19
2022-10-03T10:47:12.695Z,101241.28
2022-10-03T10:50:12.589Z,101245.47
2022-10-03T10:52:51.519Z,101250.69
2022-10-03T10:55:52.712Z,101249.34
2022-10-03T10:58:40.825Z,101239.50
2022-10-03T11:01:45.949Z,101244.34
2022-10-03T11:04:50.714Z,101235.09
2022-10-03T11:08:09.019Z,101224.00
2022-10-03T11:10:39.586Z,101234.47
2022-10-03T11:13:54.619Z,101235.78
2022-10-03T11:16:56.120Z,101234.63
2022-10-03T11:19:41.973Z,101233.59
2022-10-03T11:22:37.624Z,101230.91
2022-10-03T11:25:19.959Z,101232.69
2022-10-03T11:28:18.711Z,101236.66
2022-10-03T11:31:04.792Z,101216.34
2022-10-03T11:34:09.464Z,101225.66
2022-10-03T11:37:08.340Z,101226.09
2022-10-03T11:39:42.118Z,101231.56
2022-10-03T11:42:19.465Z,101224.25
2022-10-03T11:44:54.986Z,101224.75
2022-10-03T11:47:44.918Z,101230.09
2022-10-03T11:50:20.905Z,101230.78
2022-10-03T11:52:50.336Z,101228.94
2022-10-03T11:55:47.473Z,101227.84
2022-10-03T11:58:56.109Z,101225.44
2022-10-03T12:01:28.961Z,101231.28
2022-10-03T12:04:03.100Z,101223.13
2022-10-03T12:07:12.039Z,101220.78
2022-10-03T12:10:03.113Z,101239.25
2022-10-03T12:12:42.332Z,101234.22
2022-10-03T12:15:21.529Z,101214.19
2022-10-03T12:18:03.554Z,101210.88
2022-10-03T12:20:37.706Z,101233.63
2022-10-03T12:23:26.421Z,101218.53
2022-10-03T12:25:53.998Z,101214.56
2022-10-03T12:28:28.648Z,101211.41
2022-10-03T12:31:19.318Z,101218.97
2022-10-03T12:33:59.617Z,101222.28
2022-10-03T12:36:55.102Z,101258.97
2022-10-03T12:39:30.969Z,101231.16
2022-10-03T12:42:15.470Z,101229.91
2022-10-03T12:44:51.573Z,101220.81
2022-10-03T12:47:55.798Z,101229.13
2022-10-03T12:50:32.765Z,101221.19
2022-10-03T12:53:17.973Z,101223.06
2022-10-03T12:56:12.644Z,101229.16
2022-10-03T12:59:01.884Z,101218.34
2022-10-03T13:01:55.496Z,101223.84
2022-10-03T13:04:42.867Z,101223.34
2022-10-03T13:07:52.518Z,101222.41
2022-10-03T13:10:31.387Z,101224.75
2022-10-03T13:13:10.556Z,101224.06
2022-10-03T13:16:09.941Z,101219.19
2022-10-03T13:18:56.410Z,101219.88
2022-10-03T13:21:55.771Z,101230.47
2022-10-03T13:24:33.612Z,101232.50
2022-10-03T13:27:12.523Z,101221.69
2022-10-03T13:29:42.665Z,101223.13
2022-10-03T13:32:17.094Z,101222.16
2022-10-03T13:35:44.793Z,101218.84
2022-10-03T13:38:22.132Z,101234.09
2022-10-03T13:41:01.217Z,101220.28
2022-10-03T13:43:37.914Z,101224.47
2022-10-03T13:46:17.931Z,101217.59
2022-10-03T13:48:50.627Z,101220.00
2022-10-03T13:52:03.293Z,101227.06
2022-10-03T13:55:00.722Z,101219.69
2022-10-03T13:57:42.791Z,101213.31
2022-10-03T14:00:15.916Z,101220.75
2022-10-03T14:03:01.790Z,101212.56
2022-10-03T14:05:34.275Z,101211.66
2022-10-03T14:08:10.710Z,101226.63
2022-10-03T14:10:43.608Z,101225.31
2022-10-03T14:13:34.881Z,101214.78
2022-10-03T14:16:04.248Z,101218.59
2022-10-03T14:18:31.157Z,101214.34
2022-10-03T14:21:22.990Z,101217.41
2022-10-03T14:23:53.163Z,101228.13
2022-10-03T14:26:25.226Z,101225.06
2022-10-03T14:29:01.999Z,101227.03
2022-10-03T14:31:57.436Z,101225.94
2022-10-03T14:34:40.733Z,101223.38
2022-10-03T14:37:07.515Z,101226.63
2022-10-03T14:39:57.838Z,101223.69
2022-10-03T14:42:33.481Z,101220.13
2022-10-03T14:45:03.743Z,101223.25
2022-10-03T14:50:22.723Z,101221.81
2022-10-03T14:52:55.355Z,101216.31
2022-10-03T14:55:29.846Z,101223.66
2022-10-03T14:58:10.811Z,101211.84
2022-10-03T15:00:43.974Z,101220.72
2022-10-03T15:07:49.500Z,101208.59
2022-10-03T15:10:18.435Z,101208.94
2022-10-03T15:25:30.496Z,101210.25
2022-10-03T15:37:19.004Z,101227.34
2022-10-03T15:39:48.243Z,101238.69
2022-10-03T15:42:23.210Z,101230.34
2022-10-03T15:44:57.089Z,101233.09
2022-10-03T15:47:27.364Z,101237.50
2022-10-03T15:49:59.713Z,101234.06
2022-10-03T15:52:33.487Z,101238.03
2022-10-03T15:55:11.572Z,101236.97
2022-10-03T15:57:44.250Z,101230.13
2022-10-03T16:00:21.753Z,101233.66
2022-10-03T16:02:53.209Z,101230.28
2022-10-03T16:05:27.845Z,101236.47
2022-10-03T16:08:13.470Z,101236.16
2022-10-03T16:11:50.388Z,101232.63
2022-10-03T16:14:30.179Z,101226.94
2022-10-03T16:17:02.891Z,101234.78
2022-10-03T16:19:55.213Z,101231.25
2022-10-03T16:22:41.906Z,101237.13
2022-10-03T16:25:19.507Z,101229.97
2022-10-03T16:28:25.419Z,101233.47
2022-10-03T16:31:01.459Z,101233.06
2022-10-03T16:33:33.536Z,101236.47
2022-10-03T16:36:05.087Z,101226.75
2022-10-03T16:38:51.919Z,101229.56
2022-10-03T16:41:26.477Z,101236.69
2022-10-03T16:43:59.689Z,101223.88
2022-10-03T16:46:35.225Z,101225.00
2022-10-03T16:49:23.499Z,101231.97
2022-10-03T16:52:00.722Z,101226.41
2022-10-03T16:54:28.221Z,101231.00
2022-10-03T16:56:59.236Z,101225.31
2022-10-03T16:59:27.154Z,101217.81
2022-10-03T17:01:56.743Z,101230.41
2022-10-03T17:04:36.406Z,101229.31
2022-10-03T17:07:26.493Z,101228.22
2022-10-03T17:09:56.493Z,101226.31
2022-10-03T17:12:30.550Z,101227.38
2022-10-03T17:15:01.746Z,101230.88
2022-10-03T17:17:37.798Z,101227.00
2022-10-03T17:20:18.914Z,101226.25
2022-10-03T17:22:52.839Z,101224.38
2022-10-03T17:25:48.428Z,101234.56
2022-10-03T17:28:26.244Z,101237.84
2022-10-03T17:30:55.025Z,101230.59
2022-10-03T17:33:46.681Z,101228.00
2022-10-03T17:36:45.341Z,101236.50
2022-10-03T17:39:51.076Z,101233.75
2022-10-03T17:42:41.145Z,101238.22
2022-10-03T17:45:37.831Z,101231.94
2022-10-03T17:48:25.272Z,101232.22
2022-10-03T17:50:56.367Z,101232.22
2022-10-03T17:53:31.537Z,101227.88
2022-10-03T17:56:08.314Z,101229.59
2022-10-03T17:58:38.266Z,101232.28
2022-10-03T18:01:36.176Z,101231.69
2022-10-03T18:04:05.690Z,101237.50
2022-10-03T18:06:43.421Z,101236.06
2022-10-03T18:09:17.361Z,101234.94
2022-10-03T18:11:46.137Z,101227.88
2022-10-03T18:14:31.531Z,101240.66
2022-10-03T18:17:12.910Z,101242.06
2022-10-03T18:19:58.364Z,101240.34
2022-10-03T18:22:40.725Z,101230.25
2022-10-03T18:26:20.069Z,101234.53
2022-10-03T18:29:00.876Z,101221.59
2022-10-03T18:31:34.641Z,101224.34
2022-10-03T18:45:30.206Z,101222.47
2022-10-03T18:48:09.957Z,101234.16
2022-10-03T18:50:50.547Z,101236.16
2022-10-03T18:53:35.179Z,101238.75
2022-10-03T18:56:06.274Z,101245.03
2022-10-03T18:58:35.832Z,101237.50
2022-10-03T19:01:25.396Z,101238.94
2022-10-03T19:03:58.572Z,101247.34
2022-10-03T19:06:28.183Z,101242.38
2022-10-03T19:09:16.076Z,101245.41
2022-10-03T19:12:18.426Z,101232.06
2022-10-03T19:15:10.750Z,101240.06
2022-10-03T19:18:09.566Z,101245.22
2022-10-03T19:20:43.298Z,101245.13
2022-10-03T19:23:19.945Z,101244.56
2022-10-03T19:25:50.070Z,101242.00
2022-10-03T19:28:30.126Z,101236.66
2022-10-03T19:30:59.517Z,101243.88
2022-10-03T19:33:27.828Z,101234.28
2022-10-03T19:35:58.419Z,101244.25
2022-10-03T19:38:28.594Z,101240.28
2022-10-03T19:41:06.411Z,101241.50
2022-10-03T19:43:39.245Z,101235.03
2022-10-03T19:46:15.212Z,101235.13
2022-10-03T19:49:00.458Z,101242.72
2022-10-03T19:51:28.241Z,101237.59
2022-10-03T19:54:00.168Z,101236.81
2022-10-03T19:56:31.375Z,101243.50
2022-10-03T19:59:07.521Z,101245.41
2022-10-03T20:01:50.228Z,101241.00
2022-10-03T20:04:36.604Z,101242.84
2022-10-03T20:07:18.173Z,101244.09
2022-10-03T20:09:56.412Z,101240.84
2022-10-03T20:12:26.579Z,101234.06
2022-10-03T20:14:53.514Z,101235.69
2022-10-03T20:17:24.102Z,101230.19
2022-10-03T20:19:57.392Z,101232.44
2022-10-03T20:22:26.242Z,101225.38
2022-10-03T20:24:53.101Z,101224.28
2022-10-03T20:27:32.822Z,101222.19
2022-10-03T20:30:24.715Z,101235.78
2022-10-03T20:32:52.628Z,101225.00
2022-10-03T20:35:28.312Z,101230.91
2022-10-03T20:38:02.820Z,101224.19
2022-10-03T20:40:42.422Z,101227.59
2022-10-03T20:43:41.374Z,101233.03
2022-10-03T20:46:33.737Z,101228.00
2022-10-03T20:49:26.701Z,101233.31
2022-10-03T20:51:55.676Z,101234.28
2022-10-03T20:54:25.229Z,101233.69
2022-10-03T20:57:06.203Z,101229.03
2022-10-03T20:59:48.682Z,101232.09
2022-10-03T21:02:19.143Z,101233.13
2022-10-03T21:05:02.287Z,101227.00
2022-10-03T21:08:05.931Z,101235.78
2022-10-03T21:10:57.248Z,101236.84
2022-10-03T21:13:36.663Z,101235.50
2022-10-03T21:16:05.101Z,101229.31
2022-10-03T21:18:34.380Z,101238.66
2022-10-03T21:21:04.202Z,101232.53
2022-10-03T21:23:35.542Z,101241.66
2022-10-03T21:26:02.657Z,101235.28
2022-10-03T21:28:34.462Z,101229.72
2022-10-03T21:31:07.764Z,101231.13
2022-10-03T21:34:12.312Z,101228.97
2022-10-03T21:36:50.599Z,101227.22
2022-10-03T21:39:32.836Z,101234.84
2022-10-03T21:42:16.509Z,101226.47
2022-10-03T21:45:21.002Z,101224.19
2022-10-03T21:47:51.336Z,101224.84
2022-10-03T21:50:23.082Z,101224.97
2022-10-03T21:52:56.008Z,101215.69
2022-10-03T21:55:51.735Z,101210.00
2022-10-03T21:58:46.881Z,101216.38
2022-10-03T22:01:33.668Z,101207.44
2022-10-03T22:04:34.096Z,101206.00
2022-10-03T22:07:36.784Z,101214.13
2022-10-03T22:10:06.039Z,101200.59
2022-10-03T22:12:42.445Z,101199.22
2022-10-03T22:15:21.379Z,101212.06
2022-10-03T22:17:56.927Z,101208.63
2022-10-03T22:20:28.951Z,101204.94
2022-10-03T22:23:16.451Z,101201.22
2022-10-03T22:26:01.601Z,101202.53
2022-10-03T22:29:10.647Z,101200.50
2022-10-03T22:32:00.878Z,101207.22
2022-10-03T22:34:42.016Z,101202.34
2022-10-03T22:37:09.054Z,101206.41
2022-10-03T22:39:36.182Z,101205.22
2022-10-03T22:42:03.764Z,101205.50
2022-10-03T22:44:34.813Z,101199.34
2022-10-03T22:47:13.601Z,101205.66
2022-10-03T22:49:42.463Z,101202.06
2022-10-03T22:52:17.141Z,101203.88
2022-10-03T22:54:45.555Z,101199.34
2022-10-03T22:57:13.189Z,101203.19
2022-10-03T22:59:51.172Z,101215.91
2022-10-03T23:02:18.809Z,101192.16
2022-10-03T23:04:53.213Z,101200.06
2022-10-03T23:07:30.462Z,101193.97
2022-10-03T23:10:06.267Z,101192.75
2022-10-03T23:12:42.668Z,101205.34
2022-10-03T23:15:10.242Z,101196.03
2022-10-03T23:17:59.167Z,101203.38
2022-10-03T23:20:41.136Z,101200.94
2022-10-03T23:23:17.210Z,101211.94
2022-10-03T23:25:58.509Z,101202.06
2022-10-03T23:28:32.027Z,101205.06
2022-10-03T23:30:58.840Z,101203.56
2022-10-03T23:33:32.598Z,101206.28
2022-10-03T23:36:14.117Z,101203.19
2022-10-03T23:38:40.790Z,101202.09
2022-10-03T23:41:15.067Z,101198.91
2022-10-03T23:43:44.897Z,101203.00
2022-10-03T23:46:15.885Z,101205.22
2022-10-03T23:48:43.587Z,101208.94
2022-10-03T23:51:14.435Z,101214.28
2022-10-03T23:53:45.272Z,101211.50
2022-10-03T23:56:21.501Z,101220.19
2022-10-03T23:59:03.581Z,101218.34
